createdAt,value
2019-05-09T19:01:26.433Z,2.50
2019-05-09T19:06:30.929Z,2.47
2019-05-09T19:11:35.636Z,1.90
2019-05-09T19:16:42.054Z,2.27
2019-05-09T19:21:51.057Z,2.63
2019-05-09T19:26:55.496Z,3.00
2019-05-09T19:31:59.982Z,2.90
2019-05-09T19:37:04.786Z,3.37
2019-05-09T19:42:09.360Z,3.30
2019-05-09T19:47:13.853Z,3.30
2019-05-09T19:52:18.353Z,4.10
2019-05-09T19:57:22.774Z,4.43
2019-05-09T20:02:27.330Z,4.70
2019-05-09T20:07:32.075Z,4.87
2019-05-09T20:12:59.488Z,4.97
2019-05-09T20:18:04.311Z,4.83
2019-05-09T20:23:09.073Z,6.17
2019-05-09T20:28:13.659Z,6.47
2019-05-09T20:33:18.225Z,5.77
2019-05-09T20:38:22.915Z,5.97
2019-05-09T20:43:27.540Z,5.67
2019-05-09T20:48:32.359Z,5.57
2019-05-09T20:53:37.360Z,5.23
2019-05-09T20:58:41.944Z,5.03
2019-05-09T21:03:59.675Z,4.40
2019-05-09T21:08:53.647Z,5.43
2019-05-09T21:13:58.460Z,5.10
2019-05-09T21:19:03.213Z,3.80
2019-05-09T21:24:08.280Z,3.93
2019-05-09T21:29:13.782Z,3.80
2019-05-09T21:34:18.465Z,4.23
2019-05-09T21:39:23.435Z,3.60
2019-05-09T21:44:27.929Z,4.00
2019-05-09T21:49:32.435Z,4.23
2019-05-09T21:54:36.874Z,4.17
2019-05-09T21:59:41.302Z,4.10
2019-05-09T22:04:45.875Z,4.13
2019-05-09T22:09:50.457Z,4.13
2019-05-09T22:14:55.038Z,4.10
2019-05-09T22:19:59.533Z,4.47
2019-05-09T22:25:06.469Z,4.40
2019-05-09T22:30:13.896Z,4.20
2019-05-09T22:35:18.463Z,4.63
2019-05-09T22:40:23.011Z,4.87
2019-05-09T22:45:27.509Z,4.37
2019-05-09T22:50:32.000Z,5.23
2019-05-09T22:55:36.556Z,4.77
2019-05-09T23:00:41.042Z,5.53
2019-05-09T23:05:45.458Z,6.13
2019-05-09T23:10:53.263Z,5.37
2019-05-09T23:15:56.128Z,5.50
2019-05-09T23:21:00.621Z,6.00
2019-05-09T23:26:05.165Z,6.43
2019-05-09T23:31:11.315Z,6.20
2019-05-09T23:36:15.961Z,6.10
2019-05-09T23:41:20.520Z,6.17
2019-05-09T23:46:25.015Z,7.10
2019-05-09T23:51:46.194Z,7.20
2019-05-09T23:57:08.466Z,8.07
